sensor_id;sensor_type;location;lat;lon;timestamp;P1;durP1;ratioP1;P2;durP2;ratioP2
17714;SDS011;8977;50.902;4.314;2023-07-09T00:00:38;7.35;;;5.30;;
17714;SDS011;8977;50.902;4.314;2023-07-09T00:03:05;6.88;;;5.50;;
17714;SDS011;8977;50.902;4.314;2023-07-09T00:05:32;6.95;;;5.38;;
17714;SDS011;8977;50.902;4.314;2023-07-09T00:07:59;5.97;;;5.38;;
17714;SDS011;8977;50.902;4.314;2023-07-09T00:10:28;6.35;;;5.25;;
17714;SDS011;8977;50.902;4.314;2023-07-09T00:12:55;7.18;;;5.43;;
17714;SDS011;8977;50.902;4.314;2023-07-09T00:15:22;7.05;;;5.05;;
17714;SDS011;8977;50.902;4.314;2023-07-09T00:17:52;6.30;;;4.78;;
17714;SDS011;8977;50.902;4.314;2023-07-09T00:20:18;6.38;;;5.78;;
17714;SDS011;8977;50.902;4.314;2023-07-09T00:22:45;5.88;;;5.15;;
17714;SDS011;8977;50.902;4.314;2023-07-09T00:25:17;8.63;;;6.20;;
17714;SDS011;8977;50.902;4.314;2023-07-09T00:27:46;8.60;;;5.75;;
17714;SDS011;8977;50.902;4.314;2023-07-09T00:30:18;7.20;;;6.45;;
17714;SDS011;8977;50.902;4.314;2023-07-09T00:32:47;8.00;;;6.30;;
17714;SDS011;8977;50.902;4.314;2023-07-09T00:35:14;8.02;;;6.35;;
17714;SDS011;8977;50.902;4.314;2023-07-09T00:37:42;6.95;;;6.22;;
17714;SDS011;8977;50.902;4.314;2023-07-09T00:40:10;8.55;;;6.00;;
17714;SDS011;8977;50.902;4.314;2023-07-09T00:42:44;8.05;;;6.70;;
17714;SDS011;8977;50.902;4.314;2023-07-09T00:45:17;9.23;;;6.45;;
17714;SDS011;8977;50.902;4.314;2023-07-09T00:47:47;7.70;;;6.15;;
17714;SDS011;8977;50.902;4.314;2023-07-09T00:50:21;7.93;;;6.13;;
17714;SDS011;8977;50.902;4.314;2023-07-09T00:52:55;9.25;;;6.32;;
17714;SDS011;8977;50.902;4.314;2023-07-09T00:55:25;7.25;;;6.25;;
17714;SDS011;8977;50.902;4.314;2023-07-09T00:57:58;7.10;;;6.10;;
17714;SDS011;8977;50.902;4.314;2023-07-09T01:00:28;7.90;;;6.05;;
17714;SDS011;8977;50.902;4.314;2023-07-09T01:03:07;6.97;;;5.72;;
17714;SDS011;8977;50.902;4.314;2023-07-09T01:05:36;7.78;;;5.85;;
17714;SDS011;8977;50.902;4.314;2023-07-09T01:10:32;7.30;;;5.63;;
17714;SDS011;8977;50.902;4.314;2023-07-09T01:13:00;7.93;;;6.03;;
17714;SDS011;8977;50.902;4.314;2023-07-09T01:15:27;6.75;;;5.95;;
17714;SDS011;8977;50.902;4.314;2023-07-09T01:17:54;8.45;;;5.90;;
17714;SDS011;8977;50.902;4.314;2023-07-09T01:20:21;6.63;;;5.78;;
17714;SDS011;8977;50.902;4.314;2023-07-09T01:22:50;7.18;;;6.07;;
17714;SDS011;8977;50.902;4.314;2023-07-09T01:25:19;7.70;;;6.18;;
17714;SDS011;8977;50.902;4.314;2023-07-09T01:27:47;7.45;;;6.63;;
17714;SDS011;8977;50.902;4.314;2023-07-09T01:30:16;7.70;;;6.93;;
17714;SDS011;8977;50.902;4.314;2023-07-09T01:32:47;8.98;;;6.80;;
17714;SDS011;8977;50.902;4.314;2023-07-09T01:35:15;9.00;;;7.05;;
17714;SDS011;8977;50.902;4.314;2023-07-09T01:37:45;9.32;;;7.45;;
17714;SDS011;8977;50.902;4.314;2023-07-09T01:40:14;9.15;;;6.90;;
17714;SDS011;8977;50.902;4.314;2023-07-09T01:42:44;8.00;;;6.88;;
17714;SDS011;8977;50.902;4.314;2023-07-09T01:45:12;8.82;;;7.00;;
17714;SDS011;8977;50.902;4.314;2023-07-09T01:47:40;7.95;;;6.60;;
17714;SDS011;8977;50.902;4.314;2023-07-09T01:50:08;8.18;;;6.53;;
17714;SDS011;8977;50.902;4.314;2023-07-09T01:52:35;9.73;;;7.78;;
17714;SDS011;8977;50.902;4.314;2023-07-09T01:55:04;8.55;;;6.70;;
17714;SDS011;8977;50.902;4.314;2023-07-09T01:57:33;8.05;;;6.53;;
17714;SDS011;8977;50.902;4.314;2023-07-09T02:00:01;8.25;;;6.53;;
17714;SDS011;8977;50.902;4.314;2023-07-09T02:02:34;9.48;;;6.53;;
17714;SDS011;8977;50.902;4.314;2023-07-09T02:05:01;8.73;;;6.50;;
17714;SDS011;8977;50.902;4.314;2023-07-09T02:07:28;8.23;;;6.07;;
17714;SDS011;8977;50.902;4.314;2023-07-09T02:09:55;7.63;;;5.75;;
17714;SDS011;8977;50.902;4.314;2023-07-09T02:12:22;6.68;;;5.75;;
17714;SDS011;8977;50.902;4.314;2023-07-09T02:14:50;7.82;;;6.05;;
17714;SDS011;8977;50.902;4.314;2023-07-09T02:17:17;6.53;;;5.10;;
17714;SDS011;8977;50.902;4.314;2023-07-09T02:19:43;5.50;;;4.85;;
17714;SDS011;8977;50.902;4.314;2023-07-09T02:22:10;5.57;;;4.93;;
17714;SDS011;8977;50.902;4.314;2023-07-09T02:24:38;6.95;;;5.28;;
17714;SDS011;8977;50.902;4.314;2023-07-09T02:27:05;6.45;;;5.15;;
17714;SDS011;8977;50.902;4.314;2023-07-09T02:29:35;6.65;;;5.18;;
17714;SDS011;8977;50.902;4.314;2023-07-09T02:32:04;7.57;;;5.20;;
17714;SDS011;8977;50.902;4.314;2023-07-09T02:34:32;5.50;;;4.90;;
17714;SDS011;8977;50.902;4.314;2023-07-09T02:37:00;5.75;;;5.10;;
17714;SDS011;8977;50.902;4.314;2023-07-09T02:39:27;6.28;;;5.07;;
17714;SDS011;8977;50.902;4.314;2023-07-09T02:41:54;5.97;;;4.85;;
17714;SDS011;8977;50.902;4.314;2023-07-09T02:44:21;6.72;;;4.78;;
17714;SDS011;8977;50.902;4.314;2023-07-09T02:46:48;6.43;;;4.97;;
17714;SDS011;8977;50.902;4.314;2023-07-09T02:49:18;5.82;;;4.82;;
17714;SDS011;8977;50.902;4.314;2023-07-09T02:51:45;6.72;;;5.22;;
17714;SDS011;8977;50.902;4.314;2023-07-09T02:54:11;5.80;;;5.10;;
17714;SDS011;8977;50.902;4.314;2023-07-09T02:56:38;6.28;;;5.50;;
17714;SDS011;8977;50.902;4.314;2023-07-09T02:59:05;7.47;;;5.03;;
17714;SDS011;8977;50.902;4.314;2023-07-09T03:01:32;7.97;;;5.03;;
17714;SDS011;8977;50.902;4.314;2023-07-09T03:03:59;7.43;;;4.97;;
17714;SDS011;8977;50.902;4.314;2023-07-09T03:06:28;6.60;;;5.22;;
17714;SDS011;8977;50.902;4.314;2023-07-09T03:08:57;7.28;;;4.90;;
17714;SDS011;8977;50.902;4.314;2023-07-09T03:11:27;7.55;;;5.00;;
17714;SDS011;8977;50.902;4.314;2023-07-09T03:13:56;7.07;;;4.95;;
17714;SDS011;8977;50.902;4.314;2023-07-09T03:16:23;7.50;;;5.30;;
17714;SDS011;8977;50.902;4.314;2023-07-09T03:18:51;6.22;;;4.78;;
17714;SDS011;8977;50.902;4.314;2023-07-09T03:21:19;5.35;;;4.85;;
17714;SDS011;8977;50.902;4.314;2023-07-09T03:23:47;5.63;;;4.97;;
17714;SDS011;8977;50.902;4.314;2023-07-09T03:26:14;7.75;;;5.55;;
17714;SDS011;8977;50.902;4.314;2023-07-09T03:28:41;5.63;;;5.00;;
17714;SDS011;8977;50.902;4.314;2023-07-09T03:31:08;5.50;;;4.95;;
17714;SDS011;8977;50.902;4.314;2023-07-09T03:33:35;6.65;;;5.70;;
17714;SDS011;8977;50.902;4.314;2023-07-09T03:36:02;8.75;;;5.70;;
17714;SDS011;8977;50.902;4.314;2023-07-09T03:38:29;8.23;;;5.50;;
17714;SDS011;8977;50.902;4.314;2023-07-09T03:40:58;7.90;;;5.68;;
17714;SDS011;8977;50.902;4.314;2023-07-09T03:43:25;5.82;;;5.25;;
17714;SDS011;8977;50.902;4.314;2023-07-09T03:45:52;6.90;;;5.20;;
17714;SDS011;8977;50.902;4.314;2023-07-09T03:48:19;6.43;;;5.35;;
17714;SDS011;8977;50.902;4.314;2023-07-09T03:50:46;6.35;;;4.82;;
17714;SDS011;8977;50.902;4.314;2023-07-09T03:53:14;7.13;;;4.93;;
17714;SDS011;8977;50.902;4.314;2023-07-09T03:55:42;9.55;;;5.03;;
17714;SDS011;8977;50.902;4.314;2023-07-09T03:58:12;5.93;;;5.22;;
17714;SDS011;8977;50.902;4.314;2023-07-09T04:00:39;5.88;;;5.20;;
17714;SDS011;8977;50.902;4.314;2023-07-09T04:03:06;6.53;;;4.95;;
17714;SDS011;8977;50.902;4.314;2023-07-09T04:05:35;12.05;;;5.50;;
17714;SDS011;8977;50.902;4.314;2023-07-09T04:08:02;8.68;;;5.50;;
17714;SDS011;8977;50.902;4.314;2023-07-09T04:10:29;7.88;;;5.03;;
17714;SDS011;8977;50.902;4.314;2023-07-09T04:12:57;6.15;;;4.70;;
17714;SDS011;8977;50.902;4.314;2023-07-09T04:15:25;8.60;;;4.90;;
17714;SDS011;8977;50.902;4.314;2023-07-09T04:17:52;7.13;;;4.90;;
17714;SDS011;8977;50.902;4.314;2023-07-09T04:20:20;6.28;;;5.55;;
17714;SDS011;8977;50.902;4.314;2023-07-09T04:22:47;8.55;;;4.72;;
17714;SDS011;8977;50.902;4.314;2023-07-09T04:25:14;6.15;;;4.88;;
17714;SDS011;8977;50.902;4.314;2023-07-09T04:27:42;9.05;;;5.25;;
17714;SDS011;8977;50.902;4.314;2023-07-09T04:30:09;6.88;;;5.25;;
17714;SDS011;8977;50.902;4.314;2023-07-09T04:32:39;7.30;;;5.45;;
17714;SDS011;8977;50.902;4.314;2023-07-09T04:35:08;6.30;;;5.38;;
17714;SDS011;8977;50.902;4.314;2023-07-09T04:37:36;7.18;;;5.45;;
17714;SDS011;8977;50.902;4.314;2023-07-09T04:40:04;10.13;;;5.30;;
17714;SDS011;8977;50.902;4.314;2023-07-09T04:42:32;6.72;;;5.15;;
17714;SDS011;8977;50.902;4.314;2023-07-09T04:44:59;8.57;;;5.50;;
17714;SDS011;8977;50.902;4.314;2023-07-09T04:47:26;7.68;;;5.57;;
17714;SDS011;8977;50.902;4.314;2023-07-09T04:49:54;9.57;;;5.88;;
17714;SDS011;8977;50.902;4.314;2023-07-09T04:52:21;10.30;;;5.40;;
17714;SDS011;8977;50.902;4.314;2023-07-09T04:54:47;8.93;;;5.32;;
17714;SDS011;8977;50.902;4.314;2023-07-09T04:57:15;9.48;;;5.35;;
17714;SDS011;8977;50.902;4.314;2023-07-09T04:59:42;8.90;;;4.97;;
17714;SDS011;8977;50.902;4.314;2023-07-09T05:02:09;7.60;;;5.05;;
17714;SDS011;8977;50.902;4.314;2023-07-09T05:04:36;9.00;;;5.47;;
17714;SDS011;8977;50.902;4.314;2023-07-09T05:07:05;7.10;;;5.25;;
17714;SDS011;8977;50.902;4.314;2023-07-09T05:09:32;7.53;;;5.13;;
17714;SDS011;8977;50.902;4.314;2023-07-09T05:11:59;7.72;;;5.25;;
17714;SDS011;8977;50.902;4.314;2023-07-09T05:14:26;7.85;;;5.50;;
17714;SDS011;8977;50.902;4.314;2023-07-09T05:16:54;9.27;;;5.50;;
17714;SDS011;8977;50.902;4.314;2023-07-09T05:19:20;10.57;;;5.78;;
17714;SDS011;8977;50.902;4.314;2023-07-09T05:21:47;7.80;;;5.45;;
17714;SDS011;8977;50.902;4.314;2023-07-09T05:24:15;9.35;;;6.03;;
17714;SDS011;8977;50.902;4.314;2023-07-09T05:26:42;7.13;;;5.22;;
17714;SDS011;8977;50.902;4.314;2023-07-09T05:29:10;6.40;;;5.45;;
17714;SDS011;8977;50.902;4.314;2023-07-09T05:31:37;8.98;;;5.82;;
17714;SDS011;8977;50.902;4.314;2023-07-09T05:34:04;7.95;;;5.20;;
17714;SDS011;8977;50.902;4.314;2023-07-09T05:36:31;9.70;;;5.40;;
17714;SDS011;8977;50.902;4.314;2023-07-09T05:38:57;6.75;;;5.32;;
17714;SDS011;8977;50.902;4.314;2023-07-09T05:41:26;9.05;;;5.47;;
17714;SDS011;8977;50.902;4.314;2023-07-09T05:43:52;7.22;;;5.78;;
17714;SDS011;8977;50.902;4.314;2023-07-09T05:46:21;7.68;;;5.53;;
17714;SDS011;8977;50.902;4.314;2023-07-09T05:48:49;6.82;;;6.13;;
17714;SDS011;8977;50.902;4.314;2023-07-09T05:51:15;8.85;;;6.72;;
17714;SDS011;8977;50.902;4.314;2023-07-09T05:53:42;9.48;;;7.38;;
17714;SDS011;8977;50.902;4.314;2023-07-09T05:56:09;11.60;;;7.90;;
17714;SDS011;8977;50.902;4.314;2023-07-09T05:58:37;11.13;;;8.60;;
17714;SDS011;8977;50.902;4.314;2023-07-09T06:01:04;9.05;;;8.02;;
17714;SDS011;8977;50.902;4.314;2023-07-09T06:03:32;11.07;;;9.18;;
17714;SDS011;8977;50.902;4.314;2023-07-09T06:05:59;15.88;;;11.35;;
17714;SDS011;8977;50.902;4.314;2023-07-09T06:08:26;13.60;;;12.13;;
17714;SDS011;8977;50.902;4.314;2023-07-09T06:10:53;13.68;;;11.85;;
17714;SDS011;8977;50.902;4.314;2023-07-09T06:13:21;16.27;;;11.80;;
17714;SDS011;8977;50.902;4.314;2023-07-09T06:15:50;13.60;;;11.38;;
17714;SDS011;8977;50.902;4.314;2023-07-09T06:18:20;13.55;;;10.98;;
17714;SDS011;8977;50.902;4.314;2023-07-09T06:20:48;12.48;;;10.60;;
17714;SDS011;8977;50.902;4.314;2023-07-09T06:23:17;13.82;;;10.35;;
17714;SDS011;8977;50.902;4.314;2023-07-09T06:25:44;13.65;;;10.20;;
17714;SDS011;8977;50.902;4.314;2023-07-09T06:28:13;13.02;;;10.18;;
17714;SDS011;8977;50.902;4.314;2023-07-09T06:30:40;15.80;;;11.52;;
17714;SDS011;8977;50.902;4.314;2023-07-09T06:33:09;12.60;;;11.30;;
17714;SDS011;8977;50.902;4.314;2023-07-09T06:35:37;11.88;;;9.95;;
17714;SDS011;8977;50.902;4.314;2023-07-09T06:38:05;11.75;;;9.93;;
17714;SDS011;8977;50.902;4.314;2023-07-09T06:40:32;17.63;;;11.55;;
17714;SDS011;8977;50.902;4.314;2023-07-09T06:43:00;13.05;;;11.23;;
17714;SDS011;8977;50.902;4.314;2023-07-09T06:45:27;14.18;;;11.02;;
17714;SDS011;8977;50.902;4.314;2023-07-09T06:47:54;16.55;;;12.60;;
17714;SDS011;8977;50.902;4.314;2023-07-09T06:50:22;20.20;;;16.42;;
17714;SDS011;8977;50.902;4.314;2023-07-09T06:52:49;23.08;;;19.55;;
17714;SDS011;8977;50.902;4.314;2023-07-09T06:55:15;25.55;;;20.30;;
17714;SDS011;8977;50.902;4.314;2023-07-09T06:57:42;27.48;;;22.02;;
17714;SDS011;8977;50.902;4.314;2023-07-09T07:00:10;29.60;;;21.05;;
17714;SDS011;8977;50.902;4.314;2023-07-09T07:02:37;23.10;;;18.63;;
17714;SDS011;8977;50.902;4.314;2023-07-09T07:05:04;27.02;;;21.63;;
17714;SDS011;8977;50.902;4.314;2023-07-09T07:07:33;27.10;;;23.48;;
17714;SDS011;8977;50.902;4.314;2023-07-09T07:09:59;27.95;;;22.10;;
17714;SDS011;8977;50.902;4.314;2023-07-09T07:12:27;25.23;;;21.15;;
17714;SDS011;8977;50.902;4.314;2023-07-09T07:14:55;24.98;;;21.23;;
17714;SDS011;8977;50.902;4.314;2023-07-09T07:17:22;28.67;;;23.55;;
17714;SDS011;8977;50.902;4.314;2023-07-09T07:19:49;29.30;;;25.08;;
17714;SDS011;8977;50.902;4.314;2023-07-09T07:22:18;30.05;;;23.27;;
17714;SDS011;8977;50.902;4.314;2023-07-09T07:24:46;32.05;;;26.75;;
17714;SDS011;8977;50.902;4.314;2023-07-09T07:27:13;36.08;;;28.52;;
17714;SDS011;8977;50.902;4.314;2023-07-09T07:29:39;33.45;;;26.65;;
17714;SDS011;8977;50.902;4.314;2023-07-09T07:32:07;34.17;;;27.98;;
17714;SDS011;8977;50.902;4.314;2023-07-09T07:34:34;34.35;;;27.90;;
17714;SDS011;8977;50.902;4.314;2023-07-09T07:37:01;33.42;;;27.52;;
17714;SDS011;8977;50.902;4.314;2023-07-09T07:39:28;29.98;;;26.77;;
17714;SDS011;8977;50.902;4.314;2023-07-09T07:41:57;36.83;;;28.88;;
17714;SDS011;8977;50.902;4.314;2023-07-09T07:44:23;33.22;;;29.05;;
17714;SDS011;8977;50.902;4.314;2023-07-09T07:46:50;34.08;;;28.73;;
17714;SDS011;8977;50.902;4.314;2023-07-09T07:49:17;34.38;;;28.15;;
17714;SDS011;8977;50.902;4.314;2023-07-09T07:51:44;31.75;;;25.13;;
17714;SDS011;8977;50.902;4.314;2023-07-09T07:54:11;33.97;;;28.55;;
17714;SDS011;8977;50.902;4.314;2023-07-09T07:56:38;37.90;;;30.70;;
17714;SDS011;8977;50.902;4.314;2023-07-09T07:59:06;34.17;;;29.38;;
17714;SDS011;8977;50.902;4.314;2023-07-09T08:01:33;23.98;;;21.50;;
17714;SDS011;8977;50.902;4.314;2023-07-09T08:04:01;30.05;;;25.98;;
17714;SDS011;8977;50.902;4.314;2023-07-09T08:06:28;32.20;;;28.48;;
17714;SDS011;8977;50.902;4.314;2023-07-09T08:08:56;32.97;;;28.33;;
17714;SDS011;8977;50.902;4.314;2023-07-09T08:11:23;38.47;;;34.38;;
17714;SDS011;8977;50.902;4.314;2023-07-09T08:13:53;36.58;;;30.50;;
17714;SDS011;8977;50.902;4.314;2023-07-09T08:16:21;35.67;;;31.52;;
17714;SDS011;8977;50.902;4.314;2023-07-09T08:18:48;25.30;;;22.48;;
17714;SDS011;8977;50.902;4.314;2023-07-09T08:21:16;26.17;;;23.13;;
17714;SDS011;8977;50.902;4.314;2023-07-09T08:23:44;34.60;;;30.90;;
17714;SDS011;8977;50.902;4.314;2023-07-09T08:26:11;31.83;;;26.65;;
17714;SDS011;8977;50.902;4.314;2023-07-09T08:28:38;36.13;;;32.20;;
17714;SDS011;8977;50.902;4.314;2023-07-09T08:31:05;33.08;;;27.52;;
17714;SDS011;8977;50.902;4.314;2023-07-09T08:33:33;31.90;;;26.98;;
17714;SDS011;8977;50.902;4.314;2023-07-09T08:36:01;34.28;;;27.85;;
17714;SDS011;8977;50.902;4.314;2023-07-09T08:38:28;31.17;;;27.77;;
17714;SDS011;8977;50.902;4.314;2023-07-09T08:40:57;35.53;;;31.75;;
17714;SDS011;8977;50.902;4.314;2023-07-09T08:43:32;35.97;;;30.75;;
17714;SDS011;8977;50.902;4.314;2023-07-09T08:46:07;35.80;;;30.00;;
17714;SDS011;8977;50.902;4.314;2023-07-09T08:48:44;33.20;;;29.08;;
17714;SDS011;8977;50.902;4.314;2023-07-09T08:51:13;32.03;;;26.40;;
17714;SDS011;8977;50.902;4.314;2023-07-09T08:53:47;25.77;;;22.95;;
17714;SDS011;8977;50.902;4.314;2023-07-09T08:56:16;26.15;;;22.58;;
17714;SDS011;8977;50.902;4.314;2023-07-09T08:58:44;30.75;;;26.70;;
17714;SDS011;8977;50.902;4.314;2023-07-09T09:01:17;32.35;;;28.98;;
17714;SDS011;8977;50.902;4.314;2023-07-09T09:03:48;36.53;;;32.03;;
17714;SDS011;8977;50.902;4.314;2023-07-09T09:06:17;30.00;;;26.52;;
17714;SDS011;8977;50.902;4.314;2023-07-09T09:08:47;26.55;;;23.75;;
17714;SDS011;8977;50.902;4.314;2023-07-09T09:11:22;33.38;;;28.00;;
17714;SDS011;8977;50.902;4.314;2023-07-09T09:13:56;32.83;;;29.17;;
17714;SDS011;8977;50.902;4.314;2023-07-09T09:16:30;33.83;;;29.13;;
17714;SDS011;8977;50.902;4.314;2023-07-09T09:19:01;31.77;;;28.23;;
17714;SDS011;8977;50.902;4.314;2023-07-09T09:21:31;29.33;;;26.13;;
17714;SDS011;8977;50.902;4.314;2023-07-09T09:24:05;25.77;;;22.60;;
17714;SDS011;8977;50.902;4.314;2023-07-09T09:26:41;24.08;;;21.50;;
17714;SDS011;8977;50.902;4.314;2023-07-09T09:29:10;25.00;;;22.52;;
17714;SDS011;8977;50.902;4.314;2023-07-09T09:31:38;28.50;;;24.30;;
17714;SDS011;8977;50.902;4.314;2023-07-09T09:34:16;26.80;;;23.90;;
17714;SDS011;8977;50.902;4.314;2023-07-09T09:36:43;29.35;;;25.80;;
17714;SDS011;8977;50.902;4.314;2023-07-09T09:39:10;21.73;;;18.75;;
17714;SDS011;8977;50.902;4.314;2023-07-09T09:41:37;20.52;;;18.50;;
17714;SDS011;8977;50.902;4.314;2023-07-09T09:44:05;26.92;;;23.92;;
17714;SDS011;8977;50.902;4.314;2023-07-09T09:46:43;22.67;;;19.92;;
17714;SDS011;8977;50.902;4.314;2023-07-09T09:49:11;20.17;;;17.88;;
17714;SDS011;8977;50.902;4.314;2023-07-09T09:51:40;20.05;;;17.27;;
17714;SDS011;8977;50.902;4.314;2023-07-09T09:54:11;16.88;;;15.13;;
17714;SDS011;8977;50.902;4.314;2023-07-09T09:56:43;16.33;;;14.63;;
17714;SDS011;8977;50.902;4.314;2023-07-09T09:59:16;17.15;;;13.27;;
17714;SDS011;8977;50.902;4.314;2023-07-09T10:01:45;18.02;;;15.85;;
17714;SDS011;8977;50.902;4.314;2023-07-09T10:04:16;18.83;;;15.25;;
17714;SDS011;8977;50.902;4.314;2023-07-09T10:06:45;14.82;;;12.82;;
17714;SDS011;8977;50.902;4.314;2023-07-09T10:09:15;13.43;;;12.13;;
17714;SDS011;8977;50.902;4.314;2023-07-09T10:11:53;13.82;;;12.20;;
17714;SDS011;8977;50.902;4.314;2023-07-09T10:14:32;14.18;;;10.18;;
17714;SDS011;8977;50.902;4.314;2023-07-09T10:17:05;12.98;;;11.05;;
17714;SDS011;8977;50.902;4.314;2023-07-09T10:19:47;12.85;;;10.32;;
17714;SDS011;8977;50.902;4.314;2023-07-09T10:22:24;9.80;;;7.85;;
17714;SDS011;8977;50.902;4.314;2023-07-09T10:25:05;10.43;;;7.88;;
17714;SDS011;8977;50.902;4.314;2023-07-09T10:27:45;9.20;;;7.60;;
17714;SDS011;8977;50.902;4.314;2023-07-09T10:30:25;9.10;;;7.50;;
17714;SDS011;8977;50.902;4.314;2023-07-09T10:33:07;11.43;;;8.38;;
17714;SDS011;8977;50.902;4.314;2023-07-09T10:35:38;12.18;;;9.10;;
17714;SDS011;8977;50.902;4.314;2023-07-09T10:38:14;11.18;;;7.93;;
17714;SDS011;8977;50.902;4.314;2023-07-09T10:40:52;8.75;;;7.00;;
17714;SDS011;8977;50.902;4.314;2023-07-09T10:43:33;11.30;;;7.40;;
17714;SDS011;8977;50.902;4.314;2023-07-09T10:46:05;6.63;;;6.00;;
17714;SDS011;8977;50.902;4.314;2023-07-09T10:48:37;8.63;;;6.45;;
17714;SDS011;8977;50.902;4.314;2023-07-09T10:51:10;7.60;;;5.63;;
17714;SDS011;8977;50.902;4.314;2023-07-09T10:53:43;8.05;;;5.85;;
17714;SDS011;8977;50.902;4.314;2023-07-09T10:56:14;7.70;;;5.47;;
17714;SDS011;8977;50.902;4.314;2023-07-09T10:58:43;7.93;;;5.13;;
17714;SDS011;8977;50.902;4.314;2023-07-09T11:01:16;5.85;;;4.68;;
17714;SDS011;8977;50.902;4.314;2023-07-09T11:03:50;8.18;;;5.15;;
17714;SDS011;8977;50.902;4.314;2023-07-09T11:06:24;6.88;;;4.63;;
17714;SDS011;8977;50.902;4.314;2023-07-09T11:08:56;6.22;;;4.65;;
17714;SDS011;8977;50.902;4.314;2023-07-09T11:11:29;8.55;;;4.75;;
17714;SDS011;8977;50.902;4.314;2023-07-09T11:14:01;5.15;;;4.45;;
17714;SDS011;8977;50.902;4.314;2023-07-09T11:16:34;6.30;;;4.63;;
17714;SDS011;8977;50.902;4.314;2023-07-09T11:19:04;4.35;;;3.72;;
17714;SDS011;8977;50.902;4.314;2023-07-09T11:21:40;4.95;;;3.80;;
17714;SDS011;8977;50.902;4.314;2023-07-09T11:24:25;5.95;;;4.13;;
17714;SDS011;8977;50.902;4.314;2023-07-09T11:26:57;8.70;;;4.65;;
17714;SDS011;8977;50.902;4.314;2023-07-09T11:29:25;7.10;;;4.80;;
17714;SDS011;8977;50.902;4.314;2023-07-09T11:31:52;5.18;;;4.38;;
17714;SDS011;8977;50.902;4.314;2023-07-09T11:34:19;7.47;;;4.35;;
17714;SDS011;8977;50.902;4.314;2023-07-09T11:36:49;5.90;;;4.43;;
17714;SDS011;8977;50.902;4.314;2023-07-09T11:39:18;6.60;;;4.85;;
17714;SDS011;8977;50.902;4.314;2023-07-09T11:41:48;6.90;;;4.30;;
17714;SDS011;8977;50.902;4.314;2023-07-09T11:44:16;5.13;;;3.83;;
17714;SDS011;8977;50.902;4.314;2023-07-09T11:46:50;6.68;;;4.25;;
17714;SDS011;8977;50.902;4.314;2023-07-09T11:49:22;5.97;;;4.28;;
17714;SDS011;8977;50.902;4.314;2023-07-09T11:51:55;4.85;;;4.30;;
17714;SDS011;8977;50.902;4.314;2023-07-09T11:54:26;7.13;;;4.28;;
17714;SDS011;8977;50.902;4.314;2023-07-09T11:56:53;5.80;;;4.88;;
17714;SDS011;8977;50.902;4.314;2023-07-09T11:59:21;5.13;;;4.55;;
17714;SDS011;8977;50.902;4.314;2023-07-09T12:01:49;5.18;;;3.88;;
17714;SDS011;8977;50.902;4.314;2023-07-09T12:04:20;5.22;;;3.80;;
17714;SDS011;8977;50.902;4.314;2023-07-09T12:06:49;6.45;;;4.55;;
17714;SDS011;8977;50.902;4.314;2023-07-09T12:09:23;5.45;;;4.25;;
17714;SDS011;8977;50.902;4.314;2023-07-09T12:11:50;5.82;;;4.43;;
17714;SDS011;8977;50.902;4.314;2023-07-09T12:14:18;11.35;;;4.90;;
17714;SDS011;8977;50.902;4.314;2023-07-09T12:16:47;5.32;;;4.13;;
17714;SDS011;8977;50.902;4.314;2023-07-09T12:19:16;7.35;;;4.65;;
17714;SDS011;8977;50.902;4.314;2023-07-09T12:21:44;7.85;;;4.88;;
17714;SDS011;8977;50.902;4.314;2023-07-09T12:24:17;6.97;;;4.55;;
17714;SDS011;8977;50.902;4.314;2023-07-09T12:26:51;21.95;;;7.13;;
17714;SDS011;8977;50.902;4.314;2023-07-09T12:29:18;18.80;;;7.70;;
17714;SDS011;8977;50.902;4.314;2023-07-09T12:31:45;11.85;;;6.55;;
17714;SDS011;8977;50.902;4.314;2023-07-09T12:34:12;13.27;;;7.18;;
17714;SDS011;8977;50.902;4.314;2023-07-09T12:36:41;10.73;;;6.20;;
17714;SDS011;8977;50.902;4.314;2023-07-09T12:39:12;11.68;;;6.53;;
17714;SDS011;8977;50.902;4.314;2023-07-09T12:41:43;10.38;;;6.57;;
17714;SDS011;8977;50.902;4.314;2023-07-09T12:44:16;9.60;;;6.13;;
17714;SDS011;8977;50.902;4.314;2023-07-09T12:46:46;9.93;;;6.28;;
17714;SDS011;8977;50.902;4.314;2023-07-09T12:49:20;8.75;;;5.40;;
17714;SDS011;8977;50.902;4.314;2023-07-09T12:51:49;8.57;;;6.43;;
17714;SDS011;8977;50.902;4.314;2023-07-09T12:54:17;18.02;;;11.75;;
17714;SDS011;8977;50.902;4.314;2023-07-09T12:56:46;16.45;;;10.52;;
17714;SDS011;8977;50.902;4.314;2023-07-09T12:59:18;10.75;;;7.78;;
17714;SDS011;8977;50.902;4.314;2023-07-09T13:01:47;11.05;;;7.70;;
17714;SDS011;8977;50.902;4.314;2023-07-09T13:04:17;11.25;;;7.47;;
17714;SDS011;8977;50.902;4.314;2023-07-09T13:06:44;10.38;;;7.85;;
17714;SDS011;8977;50.902;4.314;2023-07-09T13:09:15;13.50;;;8.63;;
17714;SDS011;8977;50.902;4.314;2023-07-09T13:11:46;13.07;;;8.55;;
17714;SDS011;8977;50.902;4.314;2023-07-09T13:14:19;8.90;;;6.78;;
17714;SDS011;8977;50.902;4.314;2023-07-09T13:16:48;9.45;;;7.00;;
17714;SDS011;8977;50.902;4.314;2023-07-09T13:19:15;11.13;;;7.40;;
17714;SDS011;8977;50.902;4.314;2023-07-09T13:21:43;9.75;;;8.13;;
17714;SDS011;8977;50.902;4.314;2023-07-09T13:24:22;9.77;;;7.43;;
17714;SDS011;8977;50.902;4.314;2023-07-09T13:26:50;12.25;;;7.28;;
17714;SDS011;8977;50.902;4.314;2023-07-09T13:29:19;11.80;;;7.55;;
17714;SDS011;8977;50.902;4.314;2023-07-09T13:31:47;12.13;;;8.48;;
17714;SDS011;8977;50.902;4.314;2023-07-09T13:34:18;12.68;;;8.32;;
17714;SDS011;8977;50.902;4.314;2023-07-09T13:36:49;8.88;;;7.40;;
17714;SDS011;8977;50.902;4.314;2023-07-09T13:39:18;7.43;;;6.32;;
17714;SDS011;8977;50.902;4.314;2023-07-09T13:41:47;8.93;;;7.00;;
17714;SDS011;8977;50.902;4.314;2023-07-09T13:44:15;7.60;;;6.53;;
17714;SDS011;8977;50.902;4.314;2023-07-09T13:46:45;8.98;;;6.30;;
17714;SDS011;8977;50.902;4.314;2023-07-09T13:49:13;8.57;;;6.95;;
17714;SDS011;8977;50.902;4.314;2023-07-09T13:51:43;9.10;;;6.50;;
17714;SDS011;8977;50.902;4.314;2023-07-09T13:54:13;8.60;;;5.80;;
17714;SDS011;8977;50.902;4.314;2023-07-09T13:56:42;7.90;;;5.65;;
17714;SDS011;8977;50.902;4.314;2023-07-09T13:59:13;8.75;;;5.97;;
17714;SDS011;8977;50.902;4.314;2023-07-09T14:01:42;9.20;;;6.43;;
17714;SDS011;8977;50.902;4.314;2023-07-09T14:04:12;5.75;;;4.90;;
17714;SDS011;8977;50.902;4.314;2023-07-09T14:06:40;7.97;;;4.97;;
17714;SDS011;8977;50.902;4.314;2023-07-09T14:09:08;8.10;;;4.72;;
17714;SDS011;8977;50.902;4.314;2023-07-09T14:11:35;5.70;;;4.57;;
17714;SDS011;8977;50.902;4.314;2023-07-09T14:14:10;5.90;;;4.57;;
17714;SDS011;8977;50.902;4.314;2023-07-09T14:16:42;4.43;;;4.00;;
17714;SDS011;8977;50.902;4.314;2023-07-09T14:19:13;6.57;;;4.40;;
17714;SDS011;8977;50.902;4.314;2023-07-09T14:21:44;5.88;;;4.35;;
17714;SDS011;8977;50.902;4.314;2023-07-09T14:24:16;4.65;;;4.13;;
17714;SDS011;8977;50.902;4.314;2023-07-09T14:26:45;5.07;;;4.47;;
17714;SDS011;8977;50.902;4.314;2023-07-09T14:29:13;4.78;;;4.30;;
17714;SDS011;8977;50.902;4.314;2023-07-09T14:31:40;6.20;;;4.30;;
17714;SDS011;8977;50.902;4.314;2023-07-09T14:34:16;6.47;;;4.72;;
17714;SDS011;8977;50.902;4.314;2023-07-09T14:36:45;4.50;;;3.75;;
17714;SDS011;8977;50.902;4.314;2023-07-09T14:39:12;6.50;;;4.75;;
17714;SDS011;8977;50.902;4.314;2023-07-09T14:41:39;6.68;;;4.22;;
17714;SDS011;8977;50.902;4.314;2023-07-09T14:44:14;7.35;;;4.10;;
17714;SDS011;8977;50.902;4.314;2023-07-09T14:46:49;5.60;;;4.13;;
17714;SDS011;8977;50.902;4.314;2023-07-09T14:49:18;5.75;;;3.78;;
17714;SDS011;8977;50.902;4.314;2023-07-09T14:51:45;6.32;;;3.90;;
17714;SDS011;8977;50.902;4.314;2023-07-09T14:54:18;5.93;;;4.25;;
17714;SDS011;8977;50.902;4.314;2023-07-09T14:56:46;6.70;;;4.40;;
17714;SDS011;8977;50.902;4.314;2023-07-09T14:59:13;5.90;;;4.40;;
17714;SDS011;8977;50.902;4.314;2023-07-09T15:01:40;8.30;;;4.63;;
17714;SDS011;8977;50.902;4.314;2023-07-09T15:04:09;7.80;;;4.90;;
17714;SDS011;8977;50.902;4.314;2023-07-09T15:06:56;6.57;;;4.57;;